createdAt,value
2023-03-31T00:01:41.835Z,4.39
2023-03-31T00:04:12.537Z,4.39
2023-03-31T00:06:42.417Z,4.39
2023-03-31T00:09:18.447Z,4.38
2023-03-31T00:11:47.842Z,4.37
2023-03-31T00:14:19.232Z,4.37
2023-03-31T00:16:50.994Z,4.36
2023-03-31T00:19:21.814Z,4.37
2023-03-31T00:21:51.432Z,4.39
2023-03-31T00:24:20.149Z,4.37
2023-03-31T00:26:49.437Z,4.38
2023-03-31T00:29:20.851Z,4.38
2023-03-31T00:31:51.868Z,4.38
2023-03-31T00:34:21.378Z,4.38
2023-03-31T00:36:50.642Z,4.37
2023-03-31T00:39:19.429Z,4.38
2023-03-31T00:41:48.134Z,4.37
2023-03-31T00:44:29.240Z,4.33
2023-03-31T00:47:17.540Z,4.33
2023-03-31T00:49:49.555Z,4.35
2023-03-31T00:52:23.123Z,4.33
2023-03-31T00:54:58.525Z,4.34
2023-03-31T00:57:28.709Z,4.35
2023-03-31T01:00:01.250Z,4.36
2023-03-31T01:02:31.761Z,4.36
2023-03-31T01:05:02.040Z,4.38
2023-03-31T01:07:44.367Z,4.37
2023-03-31T01:10:13.748Z,4.37
2023-03-31T01:12:47.480Z,4.36
2023-03-31T01:15:16.546Z,4.36
2023-03-31T01:17:45.656Z,4.35
2023-03-31T01:20:27.480Z,4.31
2023-03-31T01:23:41.434Z,4.28
2023-03-31T01:26:44.373Z,4.26
2023-03-31T01:29:50.868Z,4.24
2023-03-31T01:32:57.273Z,4.23
2023-03-31T01:35:43.972Z,4.21
2023-03-31T01:38:34.863Z,4.22
2023-03-31T01:41:38.917Z,4.21
2023-03-31T01:44:35.707Z,4.18
2023-03-31T01:47:12.812Z,4.18
2023-03-31T01:50:03.611Z,4.17
2023-03-31T01:53:02.838Z,4.19
2023-03-31T01:55:44.731Z,4.20
2023-03-31T01:58:32.450Z,4.17
2023-03-31T02:01:05.405Z,4.18
2023-03-31T02:03:39.009Z,4.21
2023-03-31T02:06:19.416Z,4.20
2023-03-31T02:08:56.093Z,4.20
2023-03-31T02:11:26.831Z,4.19
2023-03-31T02:13:56.965Z,4.19
2023-03-31T02:16:26.924Z,4.18
2023-03-31T02:19:00.157Z,4.19
2023-03-31T02:21:34.676Z,4.21
2023-03-31T02:24:09.810Z,4.22
2023-03-31T02:26:47.538Z,4.22
2023-03-31T02:29:16.967Z,4.22
2023-03-31T02:32:17.219Z,4.24
2023-03-31T02:34:47.556Z,4.24
2023-03-31T02:37:17.589Z,4.25
2023-03-31T02:39:50.318Z,4.24
2023-03-31T02:42:21.440Z,4.24
2023-03-31T02:44:51.618Z,4.24
2023-03-31T02:47:21.455Z,4.22
2023-03-31T02:49:57.416Z,4.22
2023-03-31T02:52:41.498Z,4.25
2023-03-31T02:55:27.882Z,4.24
2023-03-31T02:58:18.816Z,4.22
2023-03-31T03:01:13.960Z,4.20
2023-03-31T03:04:23.986Z,4.18
2023-03-31T03:07:15.873Z,4.17
2023-03-31T03:10:09.668Z,4.19
2023-03-31T03:12:47.221Z,4.20
2023-03-31T03:15:34.632Z,4.21
2023-03-31T03:18:04.415Z,4.22
2023-03-31T03:20:33.818Z,4.23
2023-03-31T03:23:02.845Z,4.25
2023-03-31T03:25:31.615Z,4.26
2023-03-31T03:28:00.789Z,4.27
2023-03-31T03:30:30.270Z,4.26
2023-03-31T03:33:00.954Z,4.25
2023-03-31T03:35:31.612Z,4.23
2023-03-31T03:38:00.537Z,4.24
2023-03-31T03:40:30.392Z,4.23
2023-03-31T03:42:59.643Z,4.24
2023-03-31T03:45:30.147Z,4.25
2023-03-31T03:48:00.833Z,4.28
2023-03-31T03:50:31.466Z,4.28
2023-03-31T03:53:01.627Z,4.29
2023-03-31T03:55:30.872Z,4.31
2023-03-31T03:57:59.848Z,4.32
2023-03-31T04:00:28.452Z,4.35
2023-03-31T04:02:57.835Z,4.37
2023-03-31T04:05:26.860Z,4.39
2023-03-31T04:07:57.005Z,4.40
2023-03-31T04:10:27.568Z,4.40
2023-03-31T04:12:56.681Z,4.39
2023-03-31T04:15:25.777Z,4.40
2023-03-31T04:17:56.828Z,4.39
2023-03-31T04:20:30.337Z,4.39
2023-03-31T04:22:58.983Z,4.39
2023-03-31T04:25:29.654Z,4.37
2023-03-31T04:27:58.770Z,4.39
2023-03-31T04:30:32.151Z,4.39
2023-03-31T04:33:03.825Z,4.42
2023-03-31T04:35:45.424Z,4.42
2023-03-31T04:38:19.847Z,4.42
2023-03-31T04:40:50.270Z,4.44
2023-03-31T04:43:20.423Z,4.46
2023-03-31T04:45:49.525Z,4.45
2023-03-31T04:48:24.989Z,4.48
2023-03-31T04:51:06.628Z,4.48
2023-03-31T04:53:37.188Z,4.48
2023-03-31T04:56:07.487Z,4.50
2023-03-31T04:58:36.536Z,4.50
2023-03-31T05:01:08.166Z,4.50
2023-03-31T05:03:38.433Z,4.48
2023-03-31T05:06:08.713Z,4.48
2023-03-31T05:08:37.988Z,4.49
2023-03-31T05:11:09.438Z,4.52
2023-03-31T05:13:38.438Z,4.54
2023-03-31T05:16:09.550Z,4.55
2023-03-31T05:18:39.776Z,4.57
2023-03-31T05:21:14.395Z,4.57
2023-03-31T05:23:43.498Z,4.55
2023-03-31T05:26:13.593Z,4.56
2023-03-31T05:28:44.144Z,4.60
2023-03-31T05:31:13.158Z,4.62
2023-03-31T05:33:43.309Z,4.64
2023-03-31T05:36:15.298Z,4.69
2023-03-31T05:38:44.434Z,4.71
2023-03-31T05:41:13.737Z,4.69
2023-03-31T05:43:43.520Z,4.71
2023-03-31T05:46:12.668Z,4.70
2023-03-31T05:48:41.765Z,4.71
2023-03-31T05:51:10.575Z,4.71
2023-03-31T05:53:39.343Z,4.75
2023-03-31T05:56:08.630Z,4.77
2023-03-31T05:58:42.051Z,4.81
2023-03-31T06:01:18.265Z,4.82
2023-03-31T06:03:48.841Z,4.83
2023-03-31T06:06:18.208Z,4.85
2023-03-31T06:08:48.503Z,4.90
2023-03-31T06:11:20.178Z,4.95
2023-03-31T06:13:49.136Z,5.00
2023-03-31T06:16:19.351Z,5.00
2023-03-31T06:18:50.653Z,5.03
2023-03-31T06:21:20.493Z,5.06
2023-03-31T06:23:52.442Z,5.10
2023-03-31T06:26:24.152Z,5.12
2023-03-31T06:28:53.846Z,5.15
2023-03-31T06:31:24.514Z,5.19
2023-03-31T06:33:53.196Z,5.22
2023-03-31T06:36:23.349Z,5.22
2023-03-31T06:38:52.190Z,5.24
2023-03-31T06:41:21.864Z,5.24
2023-03-31T06:43:50.763Z,5.28
2023-03-31T06:46:20.080Z,5.32
2023-03-31T06:48:49.092Z,5.36
2023-03-31T06:51:17.855Z,5.39
2023-03-31T06:53:46.863Z,5.47
2023-03-31T06:56:16.158Z,5.57
2023-03-31T06:58:45.829Z,5.62
2023-03-31T07:01:14.807Z,5.64
2023-03-31T07:03:45.433Z,5.70
2023-03-31T07:06:14.926Z,5.76
2023-03-31T07:08:43.784Z,5.86
2023-03-31T07:11:13.372Z,5.93
2023-03-31T07:13:43.159Z,6.02
2023-03-31T07:16:14.014Z,6.14
2023-03-31T07:18:42.942Z,6.24
2023-03-31T07:21:11.993Z,6.35
2023-03-31T07:23:42.150Z,6.47
2023-03-31T07:26:11.044Z,6.58
2023-03-31T07:28:40.267Z,6.67
2023-03-31T07:31:13.620Z,6.78
2023-03-31T07:33:43.398Z,6.90
2023-03-31T07:36:14.127Z,7.00
2023-03-31T07:38:46.816Z,7.08
2023-03-31T07:41:19.219Z,7.13
2023-03-31T07:43:48.705Z,7.19
2023-03-31T07:46:27.453Z,7.21
2023-03-31T07:48:56.523Z,7.27
2023-03-31T07:51:26.730Z,7.30
2023-03-31T07:53:56.237Z,7.35
2023-03-31T07:56:25.679Z,7.38
2023-03-31T07:58:57.527Z,7.41
2023-03-31T08:01:28.328Z,7.46
2023-03-31T08:03:58.727Z,7.51
2023-03-31T08:06:28.738Z,7.57
2023-03-31T08:08:58.283Z,7.64
2023-03-31T08:11:33.243Z,7.70
2023-03-31T08:14:04.177Z,7.75
2023-03-31T08:16:33.166Z,7.80
2023-03-31T08:19:03.131Z,7.82
2023-03-31T08:21:32.050Z,7.85
2023-03-31T08:24:02.305Z,7.89
2023-03-31T08:26:32.742Z,7.92
2023-03-31T08:29:02.161Z,7.94
2023-03-31T08:31:31.468Z,7.96
2023-03-31T08:34:00.718Z,7.96
2023-03-31T08:36:30.671Z,7.99
2023-03-31T08:38:59.479Z,8.01
2023-03-31T08:41:36.320Z,8.03
2023-03-31T08:44:13.077Z,8.04
2023-03-31T08:46:44.249Z,8.06
2023-03-31T08:49:16.486Z,8.06
2023-03-31T08:51:52.279Z,8.07
2023-03-31T08:54:43.742Z,8.06
2023-03-31T08:57:32.597Z,8.08
2023-03-31T09:00:03.462Z,8.13
2023-03-31T09:02:52.564Z,8.18
2023-03-31T09:05:33.131Z,8.22
2023-03-31T09:08:19.042Z,8.24
2023-03-31T09:11:16.211Z,8.28
2023-03-31T09:13:59.210Z,8.34
2023-03-31T09:16:36.057Z,8.38
2023-03-31T09:19:17.018Z,8.43
2023-03-31T09:21:51.441Z,8.51
2023-03-31T09:24:34.386Z,8.58
2023-03-31T09:27:08.488Z,8.67
2023-03-31T09:29:53.388Z,8.74
2023-03-31T09:32:28.591Z,8.75
2023-03-31T09:35:04.412Z,8.78
2023-03-31T09:37:34.390Z,8.79
2023-03-31T09:40:06.159Z,8.84
2023-03-31T09:42:35.746Z,8.90
2023-03-31T09:45:05.526Z,8.97
2023-03-31T09:47:42.434Z,9.01
2023-03-31T09:50:11.404Z,9.03
2023-03-31T09:52:59.854Z,9.05
2023-03-31T09:55:50.353Z,9.05
2023-03-31T09:58:20.581Z,9.07
2023-03-31T10:01:04.631Z,9.11
2023-03-31T10:03:36.573Z,9.16
2023-03-31T10:06:11.465Z,9.21
2023-03-31T10:09:01.349Z,9.26
2023-03-31T10:11:30.545Z,9.29
2023-03-31T10:14:05.327Z,9.31
2023-03-31T10:16:56.132Z,9.34
2023-03-31T10:19:30.127Z,9.39
2023-03-31T10:22:05.623Z,9.40
2023-03-31T10:24:42.887Z,9.40
2023-03-31T10:27:28.373Z,9.43
2023-03-31T10:29:59.075Z,9.46
2023-03-31T10:32:31.912Z,9.52
2023-03-31T10:35:26.779Z,9.55
2023-03-31T10:37:59.248Z,9.58
2023-03-31T10:40:29.546Z,9.61
2023-03-31T10:43:18.676Z,9.62
2023-03-31T10:45:55.893Z,9.63
2023-03-31T10:48:37.229Z,9.64
2023-03-31T10:51:19.155Z,9.66
2023-03-31T10:53:51.519Z,9.68
2023-03-31T10:56:37.579Z,9.69
2023-03-31T10:59:28.179Z,9.70
2023-03-31T11:02:27.414Z,9.72
2023-03-31T11:05:17.768Z,9.77
2023-03-31T11:08:05.789Z,9.77
2023-03-31T11:11:01.281Z,9.79
2023-03-31T11:14:03.905Z,9.81
2023-03-31T11:16:44.043Z,9.84
2023-03-31T11:22:30.910Z,9.93
2023-03-31T11:25:20.124Z,9.97
2023-03-31T11:28:20.630Z,9.99
2023-03-31T11:30:54.689Z,10.01
2023-03-31T11:33:50.865Z,10.02
2023-03-31T11:36:41.229Z,10.08
2023-03-31T11:39:21.852Z,10.13
2023-03-31T11:41:57.757Z,10.23
2023-03-31T11:44:27.807Z,10.31
2023-03-31T11:47:03.502Z,10.37
2023-03-31T11:49:41.981Z,10.38
2023-03-31T11:52:19.277Z,10.39
2023-03-31T11:55:06.785Z,10.42
2023-03-31T11:58:14.752Z,10.44
2023-03-31T12:00:48.511Z,10.49
2023-03-31T12:03:29.046Z,10.51
2023-03-31T12:06:09.202Z,10.54
2023-03-31T12:08:56.818Z,10.54
2023-03-31T12:11:33.534Z,10.55
2023-03-31T12:14:14.408Z,10.56
2023-03-31T12:16:49.161Z,10.57
2023-03-31T12:19:27.438Z,10.56
2023-03-31T12:22:28.983Z,10.58
2023-03-31T12:24:57.853Z,10.57
2023-03-31T12:27:35.904Z,10.55
2023-03-31T12:30:31.813Z,10.52
2023-03-31T12:33:35.405Z,10.49
2023-03-31T12:36:20.096Z,10.41
2023-03-31T12:39:14.318Z,10.33
2023-03-31T12:41:57.109Z,10.29
2023-03-31T12:44:50.069Z,10.25
2023-03-31T12:47:42.727Z,10.21
2023-03-31T12:50:38.765Z,10.17
2023-03-31T12:53:28.009Z,10.15
2023-03-31T12:56:00.310Z,10.15
2023-03-31T12:58:36.919Z,10.19
2023-03-31T13:01:23.504Z,10.22
2023-03-31T13:04:19.381Z,10.22
2023-03-31T13:06:55.193Z,10.22
2023-03-31T13:09:35.005Z,10.21
2023-03-31T13:12:22.370Z,10.24
2023-03-31T13:14:54.267Z,10.23
2023-03-31T13:17:29.603Z,10.24
2023-03-31T13:20:27.441Z,10.21
2023-03-31T13:23:19.329Z,10.18
2023-03-31T13:25:56.246Z,10.17
2023-03-31T13:28:41.951Z,10.12
2023-03-31T13:31:13.083Z,10.10
2023-03-31T13:33:55.537Z,10.08
2023-03-31T13:36:45.431Z,10.05
2023-03-31T13:39:57.632Z,10.04
2023-03-31T13:42:59.560Z,10.03
2023-03-31T13:46:00.453Z,10.01
2023-03-31T13:49:00.538Z,10.00
2023-03-31T13:52:00.675Z,9.95
2023-03-31T13:55:10.088Z,9.92
2023-03-31T13:58:24.839Z,9.90
2023-03-31T14:00:49.005Z,9.84
2023-03-31T14:03:41.324Z,9.81
2023-03-31T14:06:37.419Z,9.80
2023-03-31T14:09:10.748Z,9.77
2023-03-31T14:11:39.790Z,9.72
2023-03-31T14:14:16.363Z,9.65
2023-03-31T14:17:02.318Z,9.58
2023-03-31T14:19:49.563Z,9.49
2023-03-31T14:23:02.725Z,9.42
2023-03-31T14:25:54.515Z,9.37
2023-03-31T14:28:53.922Z,9.32
2023-03-31T14:31:35.128Z,9.27
2023-03-31T14:34:19.315Z,9.24
2023-03-31T14:36:57.471Z,9.19
2023-03-31T14:39:34.484Z,9.13
2023-03-31T14:42:05.383Z,9.11
2023-03-31T14:44:34.650Z,9.04
2023-03-31T14:47:03.495Z,8.98
2023-03-31T14:49:38.575Z,8.95
2023-03-31T14:52:19.611Z,8.89
2023-03-31T14:54:51.183Z,8.86
2023-03-31T14:57:24.553Z,8.84
2023-03-31T14:59:53.585Z,8.82
2023-03-31T15:02:33.304Z,8.76
2023-03-31T15:05:07.242Z,8.69
2023-03-31T15:07:36.753Z,8.61
2023-03-31T15:10:07.046Z,8.57
2023-03-31T15:12:38.460Z,8.53
2023-03-31T15:15:08.579Z,8.51
2023-03-31T15:17:40.116Z,8.51
2023-03-31T15:20:32.272Z,8.48
2023-03-31T15:23:05.269Z,8.45
2023-03-31T15:25:39.814Z,8.45
2023-03-31T15:28:11.677Z,8.48
2023-03-31T15:30:41.360Z,8.44
2023-03-31T15:33:22.047Z,8.43
2023-03-31T15:35:51.747Z,8.39
2023-03-31T15:38:22.563Z,8.35
2023-03-31T15:40:56.214Z,8.33
2023-03-31T15:43:50.453Z,8.27
2023-03-31T15:46:44.034Z,8.22
2023-03-31T15:49:21.360Z,8.16
2023-03-31T15:51:49.727Z,8.13
2023-03-31T15:54:40.416Z,8.12
2023-03-31T15:57:09.585Z,8.08
2023-03-31T16:02:25.569Z,8.04
2023-03-31T16:05:01.638Z,8.02
2023-03-31T16:07:34.216Z,8.02
2023-03-31T16:10:21.253Z,8.00
2023-03-31T16:13:04.032Z,8.01
2023-03-31T16:15:38.096Z,8.01
2023-03-31T16:18:17.429Z,8.01
2023-03-31T16:20:57.728Z,7.98
2023-03-31T16:23:33.888Z,7.95
2023-03-31T16:26:02.742Z,7.94
2023-03-31T16:28:36.633Z,7.94
2023-03-31T16:31:06.355Z,7.94
2023-03-31T16:33:55.402Z,7.93
2023-03-31T16:36:24.372Z,7.92
2023-03-31T16:38:59.682Z,7.91
2023-03-31T16:41:29.438Z,7.88
2023-03-31T16:43:58.273Z,7.86
2023-03-31T16:46:27.377Z,7.84
2023-03-31T16:48:56.728Z,7.82
2023-03-31T16:51:26.012Z,7.79
2023-03-31T16:53:57.573Z,7.77
2023-03-31T16:56:26.159Z,7.77
2023-03-31T16:58:56.124Z,7.77
2023-03-31T17:01:25.112Z,7.76
2023-03-31T17:03:55.836Z,7.74
2023-03-31T17:06:25.348Z,7.75
2023-03-31T17:08:54.238Z,7.73
2023-03-31T17:11:23.572Z,7.75
2023-03-31T17:13:54.963Z,7.74
2023-03-31T17:18:56.195Z,7.73
2023-03-31T17:21:26.237Z,7.71
2023-03-31T17:23:54.894Z,7.72
2023-03-31T17:26:23.701Z,7.69
2023-03-31T17:28:53.464Z,7.69
2023-03-31T17:31:22.430Z,7.68
2023-03-31T17:33:51.134Z,7.67
2023-03-31T17:36:23.038Z,7.64
2023-03-31T17:38:51.860Z,7.67
2023-03-31T17:41:20.972Z,7.66
2023-03-31T17:43:50.727Z,7.67
2023-03-31T17:46:19.427Z,7.68
2023-03-31T17:48:53.127Z,7.69
2023-03-31T17:51:23.111Z,7.70
2023-03-31T17:53:53.843Z,7.68
2023-03-31T17:56:23.577Z,7.67
2023-03-31T17:58:52.518Z,7.69
2023-03-31T18:01:22.856Z,7.70
2023-03-31T18:03:51.943Z,7.70
2023-03-31T18:06:22.072Z,7.70
2023-03-31T18:08:52.128Z,7.70
2023-03-31T18:11:21.779Z,7.73
2023-03-31T18:13:52.245Z,7.72
2023-03-31T18:16:21.006Z,7.74
2023-03-31T18:18:50.652Z,7.76
2023-03-31T18:21:20.627Z,7.79
2023-03-31T18:23:52.521Z,7.78
2023-03-31T18:26:23.319Z,7.78
2023-03-31T18:28:53.506Z,7.76
2023-03-31T18:31:22.231Z,7.77
2023-03-31T18:33:52.150Z,7.79
2023-03-31T18:36:21.773Z,7.82
2023-03-31T18:38:51.259Z,7.84
2023-03-31T18:41:20.748Z,7.86
2023-03-31T18:43:52.125Z,7.87
2023-03-31T18:46:21.264Z,7.89
2023-03-31T18:48:51.014Z,7.91
2023-03-31T18:51:19.792Z,7.93
2023-03-31T18:53:49.280Z,7.95
2023-03-31T18:56:18.274Z,7.96
2023-03-31T18:58:51.488Z,7.99
2023-03-31T19:01:21.060Z,7.99
2023-03-31T19:03:51.216Z,8.00
2023-03-31T19:06:22.706Z,8.04
2023-03-31T19:08:54.555Z,8.06
2023-03-31T19:11:23.670Z,8.05
2023-03-31T19:13:54.271Z,8.06
2023-03-31T19:16:27.311Z,8.07
2023-03-31T19:18:57.381Z,8.08
2023-03-31T19:21:29.116Z,8.10
2023-03-31T19:23:57.757Z,8.11
2023-03-31T19:26:29.826Z,8.11
2023-03-31T19:28:59.945Z,8.11
2023-03-31T19:31:32.195Z,8.11
2023-03-31T19:34:01.703Z,8.11
2023-03-31T19:36:30.545Z,8.12
2023-03-31T19:38:59.221Z,8.12
2023-03-31T19:41:29.008Z,8.12
2023-03-31T19:43:58.479Z,8.12
2023-03-31T19:46:28.602Z,8.13
2023-03-31T19:48:57.622Z,8.11
2023-03-31T19:51:27.320Z,8.10
2023-03-31T19:53:57.232Z,8.11
2023-03-31T19:56:28.277Z,8.12
2023-03-31T19:58:59.052Z,8.14
2023-03-31T20:01:27.991Z,8.13
2023-03-31T20:03:58.323Z,8.12
2023-03-31T20:06:29.406Z,8.12
2023-03-31T20:09:00.247Z,8.13
2023-03-31T20:11:30.929Z,8.12
2023-03-31T20:14:00.333Z,8.14
2023-03-31T20:16:30.134Z,8.15
2023-03-31T20:19:03.868Z,8.17
2023-03-31T20:21:35.976Z,8.18
2023-03-31T20:24:07.750Z,8.17
2023-03-31T20:26:36.907Z,8.17
2023-03-31T20:29:05.729Z,8.20
2023-03-31T20:31:39.839Z,8.21
2023-03-31T20:34:14.854Z,8.23
2023-03-31T20:36:48.277Z,8.23
2023-03-31T20:39:18.163Z,8.24
2023-03-31T20:41:47.903Z,8.27
2023-03-31T20:44:18.455Z,8.24
2023-03-31T20:46:48.706Z,8.24
2023-03-31T20:49:17.497Z,8.21
2023-03-31T20:51:47.705Z,8.21
2023-03-31T20:54:18.744Z,8.21
2023-03-31T20:56:47.433Z,8.24
2023-03-31T20:59:18.356Z,8.25
2023-03-31T21:01:49.153Z,8.27
2023-03-31T21:04:20.790Z,8.27
2023-03-31T21:06:50.221Z,8.27
2023-03-31T21:09:18.752Z,8.27
2023-03-31T21:11:47.602Z,8.26
2023-03-31T21:14:16.645Z,8.24
2023-03-31T21:16:45.477Z,8.21
2023-03-31T21:19:15.168Z,8.19
2023-03-31T21:21:45.064Z,8.17
2023-03-31T21:24:13.838Z,8.16
2023-03-31T21:26:43.611Z,8.15
2023-03-31T21:29:14.476Z,8.15
2023-03-31T21:31:45.049Z,8.13
2023-03-31T21:34:15.568Z,8.11
2023-03-31T21:36:44.820Z,8.08
2023-03-31T21:39:13.873Z,8.06
2023-03-31T21:41:44.344Z,8.04
2023-03-31T21:44:15.013Z,8.01
2023-03-31T21:46:44.928Z,7.98
2023-03-31T21:49:17.302Z,7.97
2023-03-31T21:51:47.132Z,7.97
2023-03-31T21:54:17.098Z,7.93
2023-03-31T21:56:46.299Z,7.90
2023-03-31T21:59:15.511Z,7.86
2023-03-31T22:01:44.479Z,7.84
2023-03-31T22:04:17.475Z,7.82
2023-03-31T22:06:47.194Z,7.79
2023-03-31T22:09:15.911Z,7.78
2023-03-31T22:11:44.668Z,7.75
2023-03-31T22:14:13.990Z,7.74
2023-03-31T22:16:42.662Z,7.71
2023-03-31T22:19:13.277Z,7.70
2023-03-31T22:21:43.950Z,7.71
2023-03-31T22:24:13.432Z,7.70
2023-03-31T22:26:42.321Z,7.69
2023-03-31T22:29:16.122Z,7.69
2023-03-31T22:31:45.799Z,7.68
2023-03-31T22:34:18.108Z,7.69
2023-03-31T22:36:47.817Z,7.69
2023-03-31T22:39:16.901Z,7.68
2023-03-31T22:41:46.095Z,7.68
2023-03-31T22:44:15.185Z,7.68
2023-03-31T22:46:48.524Z,7.69
2023-03-31T22:49:17.932Z,7.68
2023-03-31T22:51:47.522Z,7.67
2023-03-31T22:54:16.666Z,7.66
2023-03-31T22:56:45.944Z,7.66
2023-03-31T22:59:15.933Z,7.64
2023-03-31T23:01:46.976Z,7.63
2023-03-31T23:04:16.138Z,7.64
2023-03-31T23:06:44.961Z,7.64
2023-03-31T23:09:13.790Z,7.64
2023-03-31T23:11:44.462Z,7.65
2023-03-31T23:14:13.898Z,7.65
2023-03-31T23:16:43.814Z,7.65
2023-03-31T23:19:12.940Z,7.67
2023-03-31T23:21:43.233Z,7.67
2023-03-31T23:24:12.439Z,7.67
2023-03-31T23:26:42.936Z,7.68
2023-03-31T23:29:11.820Z,7.66
2023-03-31T23:31:40.965Z,7.66
2023-03-31T23:34:11.780Z,7.66
2023-03-31T23:36:40.675Z,7.66
2023-03-31T23:44:44.052Z,7.70
2023-03-31T23:47:12.994Z,7.71
2023-03-31T23:49:42.405Z,7.70
2023-03-31T23:52:12.451Z,7.73
2023-03-31T23:54:41.357Z,7.75
2023-03-31T23:57:11.301Z,7.76
2023-03-31T23:59:41.458Z,7.78
